Terminal Aerodrome Forecast
Issued by NWS Sterling, VA

Current Version | Previous Version | Text Only | Print | Product List | Glossary Off
Versions: 1 2 3 4 5 6 7 8 9 10 11 12 13 14 15 16 17 18 19 20 21 22

000
FTUS41 KLWX 300537
TAFMRB
TAF
KMRB 300537Z 3006/0106 17004KT P6SM BKN080
     FM301200 19008KT P6SM BKN050
     FM301600 19008KT P6SM VCTS BKN050CB
     FM301900 20010G17KT P6SM -SHRA VCTS BKN050CB
     FM302200 20008KT P6SM BKN050
     FM010100 20004KT P6SM BKN050=

USA.gov is the U.S. government's official web portal to all federal, state and local government web resources and services.